Etusivu
METAR-TAF:

METAR-TAF

Lentoasemat :

Meierwik

Glücksburg, Saksa

Leveyspiiri: 54-50N, Pituuspiiri: 009-30E, korkeus merenpinnasta: 27 m

Tämänhetkinen sää

Tämä raportti tehtiin 55 minuuttia sitten, kello 09.20 UTC
Tuuli 24 kn lännestä/luoteesta
Lämpötila 6°C
Kosteus 81%
Ilmanpaine 1017 hPa

METAR: ETGG 010920Z AUTO 29024KT //// // ////// 06/03 Q1017 ///

Aika: 12:15 (10:15 UTC)


TAF: puuttuu

Säähavainnot ja -ennusteet yli 4000 lentoasemalta (METAR- ja TAF-raportit).

Käytössä olevat sääasemat on merkitty karttaan keltaisilla ja punaisilla pisteillä.

Aseta hiiri pisteen päälle nähdäksesi sääaseman nimen.

Klikkaa sitten nähdäksesi säähavainnot ja -ennusteet.

Kartan vaihtaminen: klikkaa mustalla rastilla varustettuja vihreitä pisteitä, niin voit zoomata sisään; viivalla varustettua vihreää pistettä, niin voit zoomata ulos tai vihreitä nuolia, niin pääset viereisille kartoille.


METAR-TAF: